Alderson, Oklahoma
Current Conditions -  °F | °C
As of 2:53 AM on Thursday 23 Oct 2014 (Local Time) from KMLC Reporting Station
Overcast Overcast  
Wind Chill: 63°   Ceiling: 11000
Heat Index: 63°   Visibility: 10mi
Dew Point: 53°   Wind: 0mph
Humidity: 70%   Direction: NA
Pressure: 30.14"   Gusts: NA
Location:  34.9°N, 95.69°W
Report Text: KMLC 230753Z AUTO 00000KT 10SM FEW055 SCT080 OVC110 17/12 A3014 RMK AO2 RAE0657B26E43 SLP197 P0000 T01720117
Loading
Personal Weather Stations






























Interactive Weather Map New forecast layout! Learn more

10-Day Weather Forecast

Advertisements
Track Severe Weather on mobile